Impacts METAR Board
IDs:

KJFK - New York/Kennedy Int, NY, US

Updated at: 1500 UTC 03 Dec 2021
Potential Impact None Slight Moderate High
Time 03/03Z 03/04Z 03/05Z 03/06Z 03/07Z 03/08Z 03/09Z 03/10Z 03/11Z 03/12Z 03/13Z 03/14Z 03/15Z
Temp55 50 50 48 48 47 46 45 44 43 43 45 45
Dewpt43 37 33 32 31 29 24 24 24 23 24 24 24
Altim29.59 29.65 29.68 29.70 29.72 29.75 29.79 29.81 29.82 29.85 29.90 29.91 29.94
VIS10 10 10 10 10 10 10 10 10 10 10 10 10
CIG-- 55 -- -- -- -- -- -- -- -- -- -- --
CoverSCTBKNSCTFEWFEWFEWFEWFEWSCTFEWSCTSCTSCT
FltCatVFRVFRVFRVFRVFRVFRVFRVFRVFRVFRVFRVFRVFR
WX--------------------------
WDir250310300280280300310290310320310310300
WSpd15 25 27 20 14 17 17 19 18 20 20 16 15
WGst-- 36 35 26 21 24 26 25 28 28 23 29 24
Raw hourly METARs
KJFK 030251Z 25015KT 10SM SCT055 SCT250 13/06 A2959 RMK AO2 SLP020 T01280061 55001
KJFK 030351Z 31025G36KT 10SM FEW042 BKN055 BKN075 10/03 A2965 RMK AO2 PK WND 31044/0334 WSHFT 0312 SLP041 T01000028
KJFK 030451Z 30027G35KT 10SM SCT060 SCT100 10/01 A2968 RMK AO2 PK WND 30035/0450 SLP049 T01000006 401330072
KJFK 030551Z 28020G26KT 10SM FEW060 09/00 A2970 RMK AO2 PK WND 28035/0514 SLP058 T00890000 10133 20089 51037
KJFK 030651Z 28014G21KT 10SM FEW060 09/M01 A2972 RMK AO2 PK WND 29029/0552 SLP062 T00891006
KJFK 030751Z 30017G24KT 10SM FEW055 08/M02 A2975 RMK AO2 SLP073 T00831017
KJFK 030851Z 31017G26KT 10SM FEW055 08/M04 A2979 RMK AO2 PK WND 31032/0830 SLP086 T00781044 53028
KJFK 030951Z 29019G25KT 10SM FEW060 07/M04 A2981 RMK AO2 PK WND 30030/0906 SLP093 T00721044
KJFK 031051Z 31018G28KT 10SM FEW060 SCT200 07/M04 A2982 RMK AO2 PK WND 30028/1034 SLP097 T00671044
KJFK 031151Z 32020G28KT 10SM FEW060 FEW200 06/M05 A2985 RMK AO2 PK WND 31031/1105 SLP106 T00611050 10089 20061 53021
KJFK 031251Z 31020G23KT 10SM FEW048 FEW200 SCT250 06/M04 A2990 RMK AO2 PK WND 31028/1152 PRESRR SLP125 T00611044
KJFK 031351Z 31016G29KT 10SM FEW050 FEW200 SCT250 07/M04 A2991 RMK AO2 PK WND 33030/1330 SLP128 T00721044
KJFK 031451Z 30015G24KT 10SM FEW055 SCT250 07/M04 A2994 RMK AO2 PK WND 30029/1408 SLP139 T00721044 51032



Page loaded:  15:25 UTC  |   07:25 AM Pacific  |   08:25 AM Mountain  |   09:25 AM Central  |   10:25 AM Eastern

 

ADVISORIES

FORECASTS

FORECASTS

OBSERVATIONS

USER TOOLS

ABOUT US